• Join FlightAware (Why Join?)
  • Login
  • US Flag 
11:37AM EDT


 

Airport Tracker/Info


-or-


 

Live Flight TrackerFlight Track Log ✈ EVA192 ✈ 18-Dec-2013 ✈ RCSS / TSA - RJTT / HND

Flight Track Log - Related Links

Times and Time Zones

All times are in EST time to prevent confusion due to time zone crossing. See the EVA192 flight status page for this flight to view local times or setup timezone preferences in your user account.

Time Position Orientation Groundspeed Altitude Reporting Facility
EST Latitude Longitude Course Direction KTS MPH feet Rate Location/Type
06:52PM 25.5366 122.2150 52° Northeast  Level Estimated
06:53PM 25.6297 122.3483 52° Northeast  Level Estimated
06:54PM 25.7226 122.4818 52° Northeast  Level Estimated
06:55PM 25.8154 122.6155 52° Northeast  Level Estimated
06:56PM 25.9081 122.7495 52° Northeast  Level Estimated
06:57PM 26.0007 122.8836 52° Northeast  Level Estimated
06:58PM 26.0932 123.0179 53° Northeast  Level Estimated
06:59PM 26.1855 123.1525 53° Northeast  Level Estimated
07:00PM 26.2777 123.2872 53° Northeast  Level Estimated
07:01PM 26.3698 123.4222 53° Northeast  Level Estimated
07:02PM 26.4618 123.5574 53° Northeast  Level Estimated
07:03PM 26.5536 123.6928 53° Northeast  Level Estimated
07:04PM 26.6453 123.8285 53° Northeast  Level Estimated
07:05PM 26.7369 123.9643 53° Northeast  Level Estimated
07:06PM 26.8283 124.1004 53° Northeast  Level Estimated
07:07PM 26.9196 124.2366 53° Northeast  Level Estimated
07:08PM 27.0108 124.3732 53° Northeast  Level Estimated
07:09PM 27.1018 124.5099 53° Northeast  Level Estimated
07:10PM 27.1928 124.6468 53° Northeast  Level Estimated
07:11PM 27.2835 124.7840 53° Northeast  Level Estimated
07:12PM 27.3742 124.9214 53° Northeast  Level Estimated
07:13PM 27.4647 125.0590 53° Northeast  Level Estimated
07:14PM 27.5551 125.1969 53° Northeast  Level Estimated
07:15PM 27.6453 125.3349 54° Northeast  Level Estimated
07:16PM 27.7354 125.4732 54° Northeast  Level Estimated
07:17PM 27.8254 125.6118 54° Northeast  Level Estimated
07:18PM 27.9152 125.7505 54° Northeast  Level Estimated
07:19PM 28.0049 125.8895 54° Northeast  Level Estimated
07:20PM 28.0945 126.0287 54° Northeast  Level Estimated
07:21PM 28.1839 126.1682 54° Northeast  Level Estimated
07:22PM 28.2731 126.3079 54° Northeast  Level Estimated
07:23PM 28.3623 126.4478 54° Northeast  Level Estimated
07:24PM 28.4512 126.5880 54° Northeast  Level Estimated
07:25PM 28.5401 126.7283 54° Northeast  Level Estimated
07:26PM 28.6288 126.8690 54° Northeast  Level Estimated
07:27PM 28.7173 127.0098 54° Northeast  Level Estimated
07:28PM 28.8057 127.1510 54° Northeast  Level Estimated
07:29PM 28.8940 127.2923 54° Northeast  Level Estimated
07:30PM 28.9821 127.4339 55° Northeast  Level Estimated
07:31PM 29.0700 127.5757 55° Northeast  Level Estimated
07:32PM 29.1579 127.7178 55° Northeast  Level Estimated
07:33PM 29.2455 127.8601 55° Northeast  Level Estimated
07:34PM 29.3330 128.0027 55° Northeast  Level Estimated
07:35PM 29.4204 128.1455 55° Northeast  Level Estimated
07:36PM 29.5076 128.2885 55° Northeast  Level Estimated
07:37PM 29.5946 128.4318 55° Northeast  Level Estimated
07:38PM 29.6815 128.5753 55° Northeast  Level Estimated
07:39PM 29.7683 128.7191 55° Northeast  Level Estimated
07:40PM 29.8549 128.8632 55° Northeast  Level Estimated
07:41PM 29.9413 129.0075 55° Northeast  Level Estimated
07:42PM 30.0275 129.1520 55° Northeast  Level Estimated
07:43PM 30.1137 129.2968 55° Northeast  Level Estimated
07:44PM 30.1996 129.4418 56° Northeast  Level Estimated
07:45PM 30.2854 129.5871 56° Northeast  Level Estimated
07:46PM 30.3710 129.7327 56° Northeast  Level Estimated
07:47PM 30.4565 129.8785 56° Northeast  Level Estimated
07:48PM 30.5418 130.0245 56° Northeast  Level Estimated
07:49PM 30.6270 130.1709 56° Northeast  Level Estimated
07:50PM 30.7119 130.3174 56° Northeast  Level Estimated
07:51PM 30.7968 130.4642 56° Northeast  Level Estimated
07:52PM 30.8814 130.6113 56° Northeast  Level Estimated
07:53PM 30.9659 130.7587 56° Northeast  Level Estimated
07:54PM 31.0502 130.9063 56° Northeast  Level Estimated
07:55PM 31.1344 131.0542 56° Northeast  Level Estimated
07:56PM 31.2183 131.2023 56° Northeast  Level Estimated
07:57PM 31.3022 131.3507 57° Northeast  Level Estimated
07:58PM 31.3858 131.4994 57° Northeast  Level Estimated
07:59PM 31.4693 131.6483 57° Northeast  Level Estimated
08:00PM 31.5525 131.7975 57° Northeast  Level Estimated
08:01PM 31.6357 131.9469 57° Northeast  Level Estimated
08:02PM 31.7186 132.0967 57° Northeast  Level Estimated
08:03PM 31.8014 132.2467 57° Northeast  Level Estimated
08:04PM 31.8840 132.3969 57° Northeast  Level Estimated
08:05PM 31.9664 132.5475 57° Northeast  Level Estimated
08:06PM 32.0486 132.6983 57° Northeast  Level Estimated
08:07PM 32.1307 132.8493 57° Northeast  Level Estimated
08:08PM 32.2126 133.0007 57° Northeast  Level Estimated
08:09PM 32.2943 133.1523 57° Northeast  Level Estimated
08:10PM 32.3758 133.3042 58° Northeast  Level Estimated
08:11PM 32.4571 133.4563 58° Northeast  Level Estimated
08:12PM 32.5383 133.6088 58° Northeast  Level Estimated
08:13PM 32.6193 133.7615 58° Northeast  Level Estimated
08:14PM 32.7000 133.9145 58° Northeast  Level Estimated
08:15PM 32.7806 134.0677 58° Northeast  Level Estimated
08:16PM 32.8610 134.2213 58° Northeast  Level Estimated
08:17PM 32.9413 134.3751 58° Northeast  Level Estimated
08:18PM 33.0213 134.5292 58° Northeast  Level Estimated
08:19PM 33.1011 134.6836 58° Northeast  Level Estimated
08:20PM 33.1808 134.8383 58° Northeast  Level Estimated
08:21PM 33.2603 134.9932 58° Northeast  Level Estimated
08:22PM 33.3395 135.1484 59° Northeast  Level Estimated
08:23PM 33.4186 135.3039 59° Northeast  Level Estimated
08:24PM 33.4975 135.4597 59° Northeast  Level Estimated
08:25PM 33.5762 135.6158 59° Northeast  Level Estimated
08:26PM 33.6547 135.7722 59° Northeast  Level Estimated
08:27PM 33.7329 135.9288 59° Northeast  Level Estimated
08:28PM 33.8110 136.0857 59° Northeast  Level Estimated
08:29PM 33.8889 136.2429 59° Northeast  Level Estimated
08:30PM 33.9666 136.4004 59° Northeast  Level Estimated
08:31PM 34.0441 136.5582 59° Northeast  Level Estimated
08:32PM 34.1214 136.7163 59° Northeast  Level Estimated
08:33PM 34.1985 136.8747 59° Northeast  Level Estimated
08:34PM 34.2754 137.0333 60° Northeast  Level Estimated
08:35PM 34.3521 137.1923 60° Northeast  Level Estimated
08:36PM 34.4286 137.3515 60° Northeast  Level Estimated
08:37PM 34.5048 137.5111 60° Northeast  Level Estimated
08:38PM 34.5809 137.6709 60° Northeast  Level Estimated
08:39PM 34.6567 137.8310 60° Northeast  Level Estimated
08:40PM 34.7324 137.9914 60° Northeast  Level Estimated
08:41PM 34.8078 138.1521 60° Northeast  Level Estimated
08:42PM 34.8830 138.3131 60° Northeast  Level Estimated
08:43PM 34.9580 138.4744 60° Northeast  Level Estimated
08:44PM 35.0328 138.6360 60° Northeast  Level Estimated
08:45PM 35.1074 138.7978 61° Northeast  Level Estimated
08:46PM 35.1818 138.9600 61° Northeast  Level Estimated
08:47PM 35.2559 139.1225 61° Northeast  Level Estimated
08:48PM 35.3298 139.2853 61° Northeast  Level Estimated
08:49PM 35.4036 139.4483 61° Northeast  Level Estimated
08:50PM 35.4771 139.6117 61° Northeast  Level Estimated
08:51PM 35.5503 139.7754 61° Northeast  Level Estimated
08:52PM 35.5523 139.7797 61° Northeast  Level Estimated
08:53PM 35.5523 139.7797 122° Southeast  Level Estimated
08:54PM 35.5523 139.7797 122° Southeast  Level Estimated
08:55PM 35.5523 139.7797 122° Southeast  Level Estimated
08:56PM 35.5523 139.7797 122° Southeast  Level Estimated
08:57PM 35.5523 139.7797 122° Southeast  Level Estimated
08:58PM 35.5523 139.7797 122° Southeast  Level Estimated
08:59PM 35.5523 139.7797 122° Southeast  Level Estimated
09:00PM 35.5523 139.7797 122° Southeast  Level Estimated
09:01PM 35.5523 139.7797 122° Southeast  Level Estimated
09:02PM 35.5523 139.7797 122° Southeast  Level Estimated
09:03PM 35.5523 139.7797 122° Southeast  Level Estimated
09:04PM 35.5523 139.7797 122° Southeast  Level Estimated
09:05PM 35.5523 139.7797 122° Southeast  Level Estimated
09:06PM 35.5523 139.7797 122° Southeast  Level Estimated
09:07PM 35.5523 139.7797 122° Southeast  Level Estimated